sensor_id;sensor_type;location;lat;lon;timestamp;P1;durP1;ratioP1;P2;durP2;ratioP2
9976;SDS011;5029;47.378;11.776;2023-04-01T00:04:52;7.47;;;6.87;;
9976;SDS011;5029;47.378;11.776;2023-04-01T00:09:56;10.77;;;6.67;;
9976;SDS011;5029;47.378;11.776;2023-04-01T00:15:01;6.57;;;6.00;;
9976;SDS011;5029;47.378;11.776;2023-04-01T00:20:06;7.27;;;6.57;;
9976;SDS011;5029;47.378;11.776;2023-04-01T00:25:10;7.10;;;6.50;;
9976;SDS011;5029;47.378;11.776;2023-04-01T00:30:15;7.53;;;6.83;;
9976;SDS011;5029;47.378;11.776;2023-04-01T00:35:20;7.43;;;6.83;;
9976;SDS011;5029;47.378;11.776;2023-04-01T00:40:30;7.97;;;7.27;;
9976;SDS011;5029;47.378;11.776;2023-04-01T00:45:37;7.90;;;7.20;;
9976;SDS011;5029;47.378;11.776;2023-04-01T00:50:42;6.67;;;6.03;;
9976;SDS011;5029;47.378;11.776;2023-04-01T00:55:50;7.10;;;6.50;;
9976;SDS011;5029;47.378;11.776;2023-04-01T01:00:58;6.80;;;6.20;;
9976;SDS011;5029;47.378;11.776;2023-04-01T01:06:10;7.43;;;6.13;;
9976;SDS011;5029;47.378;11.776;2023-04-01T01:11:25;5.43;;;4.93;;
9976;SDS011;5029;47.378;11.776;2023-04-01T01:16:45;5.47;;;4.93;;
9976;SDS011;5029;47.378;11.776;2023-04-01T01:21:56;4.93;;;4.43;;
9976;SDS011;5029;47.378;11.776;2023-04-01T01:27:14;3.83;;;2.83;;
9976;SDS011;5029;47.378;11.776;2023-04-01T01:32:24;3.77;;;3.43;;
9976;SDS011;5029;47.378;11.776;2023-04-01T01:37:47;4.83;;;4.27;;
9976;SDS011;5029;47.378;11.776;2023-04-01T01:42:57;4.77;;;4.37;;
9976;SDS011;5029;47.378;11.776;2023-04-01T01:48:02;4.13;;;3.80;;
9976;SDS011;5029;47.378;11.776;2023-04-01T01:53:09;2.60;;;2.40;;
9976;SDS011;5029;47.378;11.776;2023-04-01T01:58:15;3.67;;;2.47;;
9976;SDS011;5029;47.378;11.776;2023-04-01T02:03:23;2.57;;;2.37;;
9976;SDS011;5029;47.378;11.776;2023-04-01T02:08:30;2.37;;;1.70;;
9976;SDS011;5029;47.378;11.776;2023-04-01T02:13:39;3.20;;;2.57;;
9976;SDS011;5029;47.378;11.776;2023-04-01T02:18:47;3.70;;;3.40;;
9976;SDS011;5029;47.378;11.776;2023-04-01T02:23:54;3.93;;;3.30;;
9976;SDS011;5029;47.378;11.776;2023-04-01T02:29:00;3.23;;;2.80;;
9976;SDS011;5029;47.378;11.776;2023-04-01T02:34:05;4.53;;;4.13;;
9976;SDS011;5029;47.378;11.776;2023-04-01T02:39:10;5.13;;;4.40;;
9976;SDS011;5029;47.378;11.776;2023-04-01T02:44:14;3.97;;;3.57;;
9976;SDS011;5029;47.378;11.776;2023-04-01T02:49:18;6.23;;;5.63;;
9976;SDS011;5029;47.378;11.776;2023-04-01T02:54:23;4.77;;;4.37;;
9976;SDS011;5029;47.378;11.776;2023-04-01T02:59:26;5.27;;;4.77;;
9976;SDS011;5029;47.378;11.776;2023-04-01T03:04:29;5.37;;;4.87;;
9976;SDS011;5029;47.378;11.776;2023-04-01T03:09:34;5.73;;;5.23;;
9976;SDS011;5029;47.378;11.776;2023-04-01T03:14:37;4.53;;;4.13;;
9976;SDS011;5029;47.378;11.776;2023-04-01T03:19:40;4.97;;;4.57;;
9976;SDS011;5029;47.378;11.776;2023-04-01T03:24:45;4.73;;;4.33;;
9976;SDS011;5029;47.378;11.776;2023-04-01T03:29:49;5.57;;;4.87;;
9976;SDS011;5029;47.378;11.776;2023-04-01T03:34:53;5.93;;;5.37;;
9976;SDS011;5029;47.378;11.776;2023-04-01T03:39:57;6.07;;;5.47;;
9976;SDS011;5029;47.378;11.776;2023-04-01T03:45:01;5.57;;;5.07;;
9976;SDS011;5029;47.378;11.776;2023-04-01T03:50:05;11.80;;;9.70;;
9976;SDS011;5029;47.378;11.776;2023-04-01T03:55:11;8.83;;;6.97;;
9976;SDS011;5029;47.378;11.776;2023-04-01T04:00:14;11.03;;;8.43;;
9976;SDS011;5029;47.378;11.776;2023-04-01T04:05:18;7.87;;;7.07;;
9976;SDS011;5029;47.378;11.776;2023-04-01T04:10:23;6.13;;;5.33;;
9976;SDS011;5029;47.378;11.776;2023-04-01T04:15:26;5.80;;;5.30;;
9976;SDS011;5029;47.378;11.776;2023-04-01T04:20:29;6.40;;;5.73;;
9976;SDS011;5029;47.378;11.776;2023-04-01T04:25:34;6.87;;;6.20;;
9976;SDS011;5029;47.378;11.776;2023-04-01T04:30:37;6.90;;;6.23;;
9976;SDS011;5029;47.378;11.776;2023-04-01T04:35:41;6.77;;;6.17;;
9976;SDS011;5029;47.378;11.776;2023-04-01T04:40:46;7.80;;;7.10;;
9976;SDS011;5029;47.378;11.776;2023-04-01T04:45:49;7.90;;;7.20;;
9976;SDS011;5029;47.378;11.776;2023-04-01T04:50:52;7.40;;;6.70;;
9976;SDS011;5029;47.378;11.776;2023-04-01T04:55:57;8.47;;;7.57;;
9976;SDS011;5029;47.378;11.776;2023-04-01T05:01:04;8.60;;;7.90;;
9976;SDS011;5029;47.378;11.776;2023-04-01T05:06:09;8.30;;;7.50;;
9976;SDS011;5029;47.378;11.776;2023-04-01T05:11:16;7.50;;;6.80;;
9976;SDS011;5029;47.378;11.776;2023-04-01T05:16:21;9.13;;;7.77;;
9976;SDS011;5029;47.378;11.776;2023-04-01T05:21:25;8.70;;;7.90;;
9976;SDS011;5029;47.378;11.776;2023-04-01T05:26:29;8.90;;;8.20;;
9976;SDS011;5029;47.378;11.776;2023-04-01T05:31:33;8.30;;;7.60;;
9976;SDS011;5029;47.378;11.776;2023-04-01T05:36:37;10.40;;;7.80;;
9976;SDS011;5029;47.378;11.776;2023-04-01T05:41:42;8.50;;;7.80;;
9976;SDS011;5029;47.378;11.776;2023-04-01T05:46:46;8.70;;;8.00;;
9976;SDS011;5029;47.378;11.776;2023-04-01T05:51:49;8.67;;;7.90;;
9976;SDS011;5029;47.378;11.776;2023-04-01T05:56:55;9.33;;;8.53;;
9976;SDS011;5029;47.378;11.776;2023-04-01T06:01:58;9.90;;;8.90;;
9976;SDS011;5029;47.378;11.776;2023-04-01T06:07:01;8.63;;;7.90;;
9976;SDS011;5029;47.378;11.776;2023-04-01T06:12:18;9.10;;;7.57;;
9976;SDS011;5029;47.378;11.776;2023-04-01T06:17:45;8.20;;;7.50;;
9976;SDS011;5029;47.378;11.776;2023-04-01T06:23:02;8.53;;;7.70;;
9976;SDS011;5029;47.378;11.776;2023-04-01T06:28:33;7.83;;;7.07;;
9976;SDS011;5029;47.378;11.776;2023-04-01T06:33:54;7.60;;;6.87;;
9976;SDS011;5029;47.378;11.776;2023-04-01T06:39:13;8.87;;;8.17;;
9976;SDS011;5029;47.378;11.776;2023-04-01T06:44:34;10.80;;;9.80;;
9976;SDS011;5029;47.378;11.776;2023-04-01T06:49:44;11.37;;;10.30;;
9976;SDS011;5029;47.378;11.776;2023-04-01T06:54:58;10.63;;;9.73;;
9976;SDS011;5029;47.378;11.776;2023-04-01T07:00:13;9.27;;;8.23;;
9976;SDS011;5029;47.378;11.776;2023-04-01T07:05:21;8.10;;;7.17;;
9976;SDS011;5029;47.378;11.776;2023-04-01T07:10:28;8.27;;;7.37;;
9976;SDS011;5029;47.378;11.776;2023-04-01T07:15:39;8.53;;;7.73;;
9976;SDS011;5029;47.378;11.776;2023-04-01T07:20:44;6.97;;;6.37;;
9976;SDS011;5029;47.378;11.776;2023-04-01T07:25:51;7.10;;;6.50;;
9976;SDS011;5029;47.378;11.776;2023-04-01T07:31:01;8.23;;;7.47;;
9976;SDS011;5029;47.378;11.776;2023-04-01T07:36:13;8.10;;;7.30;;
9976;SDS011;5029;47.378;11.776;2023-04-01T07:41:23;9.17;;;8.37;;
9976;SDS011;5029;47.378;11.776;2023-04-01T07:46:46;7.60;;;7.00;;
9976;SDS011;5029;47.378;11.776;2023-04-01T07:52:00;8.30;;;7.10;;
9976;SDS011;5029;47.378;11.776;2023-04-01T07:57:09;6.17;;;5.57;;
9976;SDS011;5029;47.378;11.776;2023-04-01T08:02:23;5.00;;;4.23;;
9976;SDS011;5029;47.378;11.776;2023-04-01T08:07:35;3.90;;;3.57;;
9976;SDS011;5029;47.378;11.776;2023-04-01T08:12:48;4.20;;;3.80;;
9976;SDS011;5029;47.378;11.776;2023-04-01T08:18:03;3.87;;;3.27;;
9976;SDS011;5029;47.378;11.776;2023-04-01T08:23:11;2.27;;;1.70;;
9976;SDS011;5029;47.378;11.776;2023-04-01T08:28:20;3.50;;;2.10;;
9976;SDS011;5029;47.378;11.776;2023-04-01T08:33:33;1.83;;;1.73;;
9976;SDS011;5029;47.378;11.776;2023-04-01T08:38:38;2.40;;;1.60;;
9976;SDS011;5029;47.378;11.776;2023-04-01T08:43:56;2.40;;;1.60;;
9976;SDS011;5029;47.378;11.776;2023-04-01T08:49:26;1.50;;;1.17;;
9976;SDS011;5029;47.378;11.776;2023-04-01T08:54:55;1.97;;;0.60;;
9976;SDS011;5029;47.378;11.776;2023-04-01T09:00:25;0.70;;;0.70;;
9976;SDS011;5029;47.378;11.776;2023-04-01T09:05:47;0.77;;;0.50;;
9976;SDS011;5029;47.378;11.776;2023-04-01T09:11:21;0.70;;;0.60;;
9976;SDS011;5029;47.378;11.776;2023-04-01T09:22:21;0.50;;;0.30;;
9976;SDS011;5029;47.378;11.776;2023-04-01T09:27:43;0.57;;;0.57;;
9976;SDS011;5029;47.378;11.776;2023-04-01T09:33:09;0.80;;;0.57;;
9976;SDS011;5029;47.378;11.776;2023-04-01T09:38:49;1.90;;;1.43;;
9976;SDS011;5029;47.378;11.776;2023-04-01T09:44:00;0.73;;;0.67;;
9976;SDS011;5029;47.378;11.776;2023-04-01T09:49:16;0.80;;;0.77;;
9976;SDS011;5029;47.378;11.776;2023-04-01T09:54:35;0.50;;;0.43;;
9976;SDS011;5029;47.378;11.776;2023-04-01T10:05:36;1.50;;;1.00;;
9976;SDS011;5029;47.378;11.776;2023-04-01T10:11:04;0.40;;;0.40;;
9976;SDS011;5029;47.378;11.776;2023-04-01T10:22:25;0.30;;;0.30;;
9976;SDS011;5029;47.378;11.776;2023-04-01T10:28:10;0.30;;;0.20;;
9976;SDS011;5029;47.378;11.776;2023-04-01T10:33:45;1.13;;;0.97;;
9976;SDS011;5029;47.378;11.776;2023-04-01T10:39:17;0.63;;;0.57;;
9976;SDS011;5029;47.378;11.776;2023-04-01T10:44:47;3.83;;;0.60;;
9976;SDS011;5029;47.378;11.776;2023-04-01T11:01:38;0.73;;;0.60;;
9976;SDS011;5029;47.378;11.776;2023-04-01T11:07:20;0.50;;;0.27;;
9976;SDS011;5029;47.378;11.776;2023-04-01T11:12:49;0.50;;;0.50;;
9976;SDS011;5029;47.378;11.776;2023-04-01T11:24:09;1.43;;;0.50;;
9976;SDS011;5029;47.378;11.776;2023-04-01T11:29:41;0.70;;;0.40;;
9976;SDS011;5029;47.378;11.776;2023-04-01T11:35:13;0.50;;;0.40;;
9976;SDS011;5029;47.378;11.776;2023-04-01T11:40:29;0.47;;;0.40;;
9976;SDS011;5029;47.378;11.776;2023-04-01T11:45:39;0.10;;;0.10;;
9976;SDS011;5029;47.378;11.776;2023-04-01T11:50:52;1.50;;;1.17;;
9976;SDS011;5029;47.378;11.776;2023-04-01T11:56:10;0.30;;;0.30;;
9976;SDS011;5029;47.378;11.776;2023-04-01T12:01:33;2.07;;;1.37;;
9976;SDS011;5029;47.378;11.776;2023-04-01T12:06:48;2.43;;;0.50;;
9976;SDS011;5029;47.378;11.776;2023-04-01T12:12:00;3.60;;;0.50;;
9976;SDS011;5029;47.378;11.776;2023-04-01T12:17:16;5.53;;;0.57;;
9976;SDS011;5029;47.378;11.776;2023-04-01T12:22:37;0.27;;;0.23;;
9976;SDS011;5029;47.378;11.776;2023-04-01T12:27:53;0.77;;;0.27;;
9976;SDS011;5029;47.378;11.776;2023-04-01T12:33:13;0.33;;;0.33;;
9976;SDS011;5029;47.378;11.776;2023-04-01T12:38:42;0.60;;;0.50;;
9976;SDS011;5029;47.378;11.776;2023-04-01T12:44:07;0.50;;;0.40;;
9976;SDS011;5029;47.378;11.776;2023-04-01T12:49:49;0.33;;;0.30;;
9976;SDS011;5029;47.378;11.776;2023-04-01T12:55:23;0.40;;;0.30;;
9976;SDS011;5029;47.378;11.776;2023-04-01T13:00:44;0.37;;;0.37;;
9976;SDS011;5029;47.378;11.776;2023-04-01T13:06:09;0.27;;;0.27;;
9976;SDS011;5029;47.378;11.776;2023-04-01T13:11:52;0.87;;;0.30;;
9976;SDS011;5029;47.378;11.776;2023-04-01T13:17:18;0.30;;;0.20;;
9976;SDS011;5029;47.378;11.776;2023-04-01T13:22:25;0.87;;;0.10;;
9976;SDS011;5029;47.378;11.776;2023-04-01T13:27:38;0.17;;;0.10;;
9976;SDS011;5029;47.378;11.776;2023-04-01T13:32:47;3.23;;;0.33;;
9976;SDS011;5029;47.378;11.776;2023-04-01T13:38:03;0.20;;;0.20;;
9976;SDS011;5029;47.378;11.776;2023-04-01T13:43:21;0.30;;;0.30;;
9976;SDS011;5029;47.378;11.776;2023-04-01T13:48:28;1.30;;;0.20;;
9976;SDS011;5029;47.378;11.776;2023-04-01T13:53:49;0.00;;;0.00;;
9976;SDS011;5029;47.378;11.776;2023-04-01T13:59:07;0.10;;;0.10;;
9976;SDS011;5029;47.378;11.776;2023-04-01T14:04:47;0.40;;;0.40;;
9976;SDS011;5029;47.378;11.776;2023-04-01T14:10:05;0.37;;;0.10;;
9976;SDS011;5029;47.378;11.776;2023-04-01T14:15:22;0.23;;;0.23;;
9976;SDS011;5029;47.378;11.776;2023-04-01T14:20:36;1.10;;;0.50;;
9976;SDS011;5029;47.378;11.776;2023-04-01T14:25:47;0.30;;;0.30;;
9976;SDS011;5029;47.378;11.776;2023-04-01T14:31:20;0.27;;;0.10;;
9976;SDS011;5029;47.378;11.776;2023-04-01T14:36:49;0.00;;;0.00;;
9976;SDS011;5029;47.378;11.776;2023-04-01T14:42:03;0.20;;;0.20;;
9976;SDS011;5029;47.378;11.776;2023-04-01T14:47:29;0.10;;;0.00;;
9976;SDS011;5029;47.378;11.776;2023-04-01T14:52:46;0.10;;;0.10;;
9976;SDS011;5029;47.378;11.776;2023-04-01T14:58:00;0.10;;;0.10;;
9976;SDS011;5029;47.378;11.776;2023-04-01T15:03:13;0.20;;;0.20;;
9976;SDS011;5029;47.378;11.776;2023-04-01T15:08:22;0.00;;;0.00;;
9976;SDS011;5029;47.378;11.776;2023-04-01T15:13:37;0.10;;;0.10;;
9976;SDS011;5029;47.378;11.776;2023-04-01T15:18:59;0.20;;;0.20;;
9976;SDS011;5029;47.378;11.776;2023-04-01T15:24:12;1.00;;;0.73;;
9976;SDS011;5029;47.378;11.776;2023-04-01T15:29:32;0.87;;;0.20;;
9976;SDS011;5029;47.378;11.776;2023-04-01T15:34:55;0.10;;;0.10;;
9976;SDS011;5029;47.378;11.776;2023-04-01T15:40:07;0.10;;;0.10;;
9976;SDS011;5029;47.378;11.776;2023-04-01T15:45:29;0.00;;;0.00;;
9976;SDS011;5029;47.378;11.776;2023-04-01T15:50:45;0.47;;;0.33;;
9976;SDS011;5029;47.378;11.776;2023-04-01T15:55:57;0.20;;;0.10;;
9976;SDS011;5029;47.378;11.776;2023-04-01T16:01:16;0.10;;;0.10;;
9976;SDS011;5029;47.378;11.776;2023-04-01T16:12:07;0.50;;;0.20;;
9976;SDS011;5029;47.378;11.776;2023-04-01T16:17:22;0.30;;;0.23;;
9976;SDS011;5029;47.378;11.776;2023-04-01T16:22:38;0.17;;;0.17;;
9976;SDS011;5029;47.378;11.776;2023-04-01T16:27:49;0.60;;;0.20;;
9976;SDS011;5029;47.378;11.776;2023-04-01T16:32:57;0.17;;;0.10;;
9976;SDS011;5029;47.378;11.776;2023-04-01T16:38:09;0.13;;;0.13;;
9976;SDS011;5029;47.378;11.776;2023-04-01T16:43:23;0.10;;;0.10;;
9976;SDS011;5029;47.378;11.776;2023-04-01T16:48:34;0.23;;;0.10;;
9976;SDS011;5029;47.378;11.776;2023-04-01T16:54:02;0.20;;;0.20;;
9976;SDS011;5029;47.378;11.776;2023-04-01T16:59:14;0.10;;;0.10;;
9976;SDS011;5029;47.378;11.776;2023-04-01T17:04:29;0.10;;;0.10;;
9976;SDS011;5029;47.378;11.776;2023-04-01T17:09:45;0.30;;;0.17;;
9976;SDS011;5029;47.378;11.776;2023-04-01T17:15:11;0.20;;;0.20;;
9976;SDS011;5029;47.378;11.776;2023-04-01T17:20:31;0.10;;;0.10;;
9976;SDS011;5029;47.378;11.776;2023-04-01T17:25:48;0.20;;;0.20;;
9976;SDS011;5029;47.378;11.776;2023-04-01T17:31:10;0.33;;;0.33;;
9976;SDS011;5029;47.378;11.776;2023-04-01T17:36:21;0.30;;;0.30;;
9976;SDS011;5029;47.378;11.776;2023-04-01T17:41:41;0.40;;;0.40;;
9976;SDS011;5029;47.378;11.776;2023-04-01T17:52:29;0.30;;;0.30;;
9976;SDS011;5029;47.378;11.776;2023-04-01T17:57:45;1.70;;;0.37;;
9976;SDS011;5029;47.378;11.776;2023-04-01T18:02:59;0.57;;;0.47;;
9976;SDS011;5029;47.378;11.776;2023-04-01T18:08:17;0.40;;;0.40;;
9976;SDS011;5029;47.378;11.776;2023-04-01T18:13:44;0.70;;;0.50;;
9976;SDS011;5029;47.378;11.776;2023-04-01T18:19:08;0.50;;;0.40;;
9976;SDS011;5029;47.378;11.776;2023-04-01T18:24:22;0.63;;;0.27;;
9976;SDS011;5029;47.378;11.776;2023-04-01T18:29:36;0.57;;;0.30;;
9976;SDS011;5029;47.378;11.776;2023-04-01T18:34:51;0.63;;;0.60;;
9976;SDS011;5029;47.378;11.776;2023-04-01T18:40:10;0.73;;;0.50;;
9976;SDS011;5029;47.378;11.776;2023-04-01T18:45:22;0.43;;;0.40;;
9976;SDS011;5029;47.378;11.776;2023-04-01T18:50:34;1.17;;;0.60;;
9976;SDS011;5029;47.378;11.776;2023-04-01T18:55:43;0.40;;;0.40;;
9976;SDS011;5029;47.378;11.776;2023-04-01T19:01:03;0.30;;;0.30;;
9976;SDS011;5029;47.378;11.776;2023-04-01T19:06:19;1.83;;;0.70;;
9976;SDS011;5029;47.378;11.776;2023-04-01T19:11:30;1.10;;;0.73;;
9976;SDS011;5029;47.378;11.776;2023-04-01T19:16:46;0.27;;;0.17;;
9976;SDS011;5029;47.378;11.776;2023-04-01T19:22:00;0.10;;;0.10;;
9976;SDS011;5029;47.378;11.776;2023-04-01T19:27:18;0.80;;;0.47;;
9976;SDS011;5029;47.378;11.776;2023-04-01T19:32:37;0.23;;;0.23;;
9976;SDS011;5029;47.378;11.776;2023-04-01T19:37:50;0.20;;;0.20;;
9976;SDS011;5029;47.378;11.776;2023-04-01T19:43:01;0.20;;;0.10;;
9976;SDS011;5029;47.378;11.776;2023-04-01T19:48:18;0.33;;;0.20;;
9976;SDS011;5029;47.378;11.776;2023-04-01T19:53:39;0.63;;;0.40;;
9976;SDS011;5029;47.378;11.776;2023-04-01T19:58:50;1.50;;;0.30;;
9976;SDS011;5029;47.378;11.776;2023-04-01T20:04:01;1.27;;;0.30;;
9976;SDS011;5029;47.378;11.776;2023-04-01T20:09:22;1.70;;;0.20;;
9976;SDS011;5029;47.378;11.776;2023-04-01T20:14:48;0.60;;;0.40;;
9976;SDS011;5029;47.378;11.776;2023-04-01T20:19:59;0.33;;;0.33;;
9976;SDS011;5029;47.378;11.776;2023-04-01T20:25:08;1.53;;;0.53;;
9976;SDS011;5029;47.378;11.776;2023-04-01T20:30:36;0.83;;;0.60;;
9976;SDS011;5029;47.378;11.776;2023-04-01T20:35:52;0.53;;;0.40;;
9976;SDS011;5029;47.378;11.776;2023-04-01T20:41:10;0.80;;;0.70;;
9976;SDS011;5029;47.378;11.776;2023-04-01T20:46:24;1.87;;;0.70;;
9976;SDS011;5029;47.378;11.776;2023-04-01T20:51:36;1.00;;;0.47;;
9976;SDS011;5029;47.378;11.776;2023-04-01T20:56:45;0.83;;;0.60;;
9976;SDS011;5029;47.378;11.776;2023-04-01T21:02:02;0.67;;;0.33;;
9976;SDS011;5029;47.378;11.776;2023-04-01T21:07:26;0.40;;;0.30;;
9976;SDS011;5029;47.378;11.776;2023-04-01T21:12:39;1.20;;;0.30;;
9976;SDS011;5029;47.378;11.776;2023-04-01T21:17:55;0.87;;;0.50;;
9976;SDS011;5029;47.378;11.776;2023-04-01T21:23:08;1.40;;;0.60;;
9976;SDS011;5029;47.378;11.776;2023-04-01T21:28:28;2.20;;;0.40;;
9976;SDS011;5029;47.378;11.776;2023-04-01T21:33:54;0.40;;;0.33;;
9976;SDS011;5029;47.378;11.776;2023-04-01T21:39:30;0.20;;;0.20;;
9976;SDS011;5029;47.378;11.776;2023-04-01T21:44:53;0.47;;;0.20;;
9976;SDS011;5029;47.378;11.776;2023-04-01T22:07:29;0.23;;;0.23;;
9976;SDS011;5029;47.378;11.776;2023-04-01T22:12:40;0.80;;;0.50;;
9976;SDS011;5029;47.378;11.776;2023-04-01T22:17:51;0.83;;;0.60;;
9976;SDS011;5029;47.378;11.776;2023-04-01T22:23:10;0.97;;;0.40;;
9976;SDS011;5029;47.378;11.776;2023-04-01T22:28:24;0.97;;;0.60;;
9976;SDS011;5029;47.378;11.776;2023-04-01T22:33:34;0.87;;;0.50;;
9976;SDS011;5029;47.378;11.776;2023-04-01T22:38:54;0.47;;;0.47;;
9976;SDS011;5029;47.378;11.776;2023-04-01T22:44:09;0.60;;;0.57;;
9976;SDS011;5029;47.378;11.776;2023-04-01T22:49:24;0.83;;;0.60;;
9976;SDS011;5029;47.378;11.776;2023-04-01T22:54:34;1.37;;;0.60;;
9976;SDS011;5029;47.378;11.776;2023-04-01T22:59:43;0.40;;;0.40;;
9976;SDS011;5029;47.378;11.776;2023-04-01T23:04:54;0.93;;;0.60;;
9976;SDS011;5029;47.378;11.776;2023-04-01T23:10:03;0.67;;;0.47;;
9976;SDS011;5029;47.378;11.776;2023-04-01T23:15:14;0.50;;;0.50;;
9976;SDS011;5029;47.378;11.776;2023-04-01T23:20:27;1.03;;;0.83;;
9976;SDS011;5029;47.378;11.776;2023-04-01T23:25:39;0.30;;;0.30;;
9976;SDS011;5029;47.378;11.776;2023-04-01T23:30:50;0.70;;;0.53;;
9976;SDS011;5029;47.378;11.776;2023-04-01T23:35:55;0.40;;;0.30;;
9976;SDS011;5029;47.378;11.776;2023-04-01T23:41:08;0.63;;;0.43;;
9976;SDS011;5029;47.378;11.776;2023-04-01T23:46:20;0.40;;;0.40;;
9976;SDS011;5029;47.378;11.776;2023-04-01T23:51:25;0.40;;;0.40;;
9976;SDS011;5029;47.378;11.776;2023-04-01T23:56:41;0.80;;;0.30;;
